PWSweather.com
Personal Weather Stations
Station Observations
KMIEASTT1
Tawas Bay, East Tawas, MI 48730

Tawas BayEast Tawas, MI 48730

Lat: 44.28, Lon: -83.48

Elevation: 600

Station Type: Davis VantagePro

http://www.tawasbayweather.com

High Low Average
Temperature 21.6°F-5.8°C 7.3°F-13.7°C 13.5°F-10.3°C
Dew Point 12.4°F-10.9°C 0.9°F-17.3°C 6.1°F-14.4°C
Winds 8.0 mph 12.9 kmh Calm Calm 4.0 mph WNW6.4 kmh WNW
Wind Gusts 15.0 mph24.1 kmh 5.0 mph8.0 kmh 9.0 mph14.5 kmh
Humidity 79% 65% 72%
Pressure 30.25 in1024.4 mb 30.09 in1019.0 mb -
Precipitation 0.00 in0.0 mm - -
Hour Temp Dew Point Humidity Winds Wind Gusts Pressure Precip Precip Rate Daily Precip Total
12:02 AM 13.2°F-10.4°C 6.8°F-14.0°C 75% 2.0 mph NW3.2 kmh NW 9.0 mph14.5 kmh 30.09 in1019.0 mb 0.00 in0.0 mm 0.00 in/hr0.0 mm/hr 0.00 in0.0 mm
12:16 AM 13.2°F-10.4°C 6.5°F-14.2°C 74% 8.0 mph NNW12.9 kmh NNW 8.0 mph12.9 kmh 30.09 in1019.0 mb 0.00 in0.0 mm 0.00 in/hr0.0 mm/hr 0.00 in0.0 mm
12:30 AM 13.1°F-10.5°C 6.4°F-14.2°C 74% 3.0 mph NNW4.8 kmh NNW 8.0 mph12.9 kmh 30.09 in1019.0 mb 0.00 in0.0 mm 0.00 in/hr0.0 mm/hr 0.00 in0.0 mm
12:46 AM 13.0°F-10.6°C 6.3°F-14.3°C 74% 9.0 mph NW14.5 kmh NW 11.0 mph17.7 kmh 30.09 in1019.0 mb 0.00 in0.0 mm 0.00 in/hr0.0 mm/hr 0.00 in0.0 mm
01:02 AM 13.0°F-10.6°C 6.3°F-14.3°C 74% 1.0 mph NNE1.6 kmh NNE 7.0 mph11.3 kmh 30.09 in1019.0 mb 0.00 in0.0 mm 0.00 in/hr0.0 mm/hr 0.00 in0.0 mm
01:16 AM 13.0°F-10.6°C 6.6°F-14.1°C 75% 4.0 mph N6.4 kmh N 7.0 mph11.3 kmh 30.09 in1019.0 mb 0.00 in0.0 mm 0.00 in/hr0.0 mm/hr 0.00 in0.0 mm
01:30 AM 13.0°F-10.6°C 6.6°F-14.1°C 75% 4.0 mph NNW6.4 kmh NNW 6.0 mph9.7 kmh 30.10 in1019.3 mb 0.00 in0.0 mm 0.00 in/hr0.0 mm/hr 0.00 in0.0 mm
01:46 AM 13.0°F-10.6°C 6.6°F-14.1°C 75% 3.0 mph NW4.8 kmh NW 7.0 mph11.3 kmh 30.10 in1019.3 mb 0.00 in0.0 mm 0.00 in/hr0.0 mm/hr 0.00 in0.0 mm
02:02 AM 12.9°F-10.6°C 6.8°F-14.0°C 76% 3.0 mph NW4.8 kmh NW 10.0 mph16.1 kmh 30.10 in1019.3 mb 0.00 in0.0 mm 0.00 in/hr0.0 mm/hr 0.00 in0.0 mm
02:16 AM 12.7°F-10.7°C 6.9°F-13.9°C 77% 7.0 mph N11.3 kmh N 7.0 mph11.3 kmh 30.10 in1019.3 mb 0.00 in0.0 mm 0.00 in/hr0.0 mm/hr 0.00 in0.0 mm
02:31 AM 12.6°F-10.8°C 6.8°F-14.0°C 77% 8.0 mph N12.9 kmh N 9.0 mph14.5 kmh 30.11 in1019.6 mb 0.00 in0.0 mm 0.00 in/hr0.0 mm/hr 0.00 in0.0 mm
02:46 AM 12.4°F-10.9°C 6.6°F-14.1°C 77% 4.0 mph NW6.4 kmh NW 11.0 mph17.7 kmh 30.11 in1019.6 mb 0.00 in0.0 mm 0.00 in/hr0.0 mm/hr 0.00 in0.0 mm
03:02 AM 12.3°F-10.9°C 6.8°F-14.0°C 78% 4.0 mph NNW6.4 kmh NNW 6.0 mph9.7 kmh 30.12 in1020.0 mb 0.00 in0.0 mm 0.00 in/hr0.0 mm/hr 0.00 in0.0 mm
03:15 AM 12.3°F-10.9°C 6.8°F-14.0°C 78% 2.0 mph NNW3.2 kmh NNW 9.0 mph14.5 kmh 30.12 in1020.0 mb 0.00 in0.0 mm 0.00 in/hr0.0 mm/hr 0.00 in0.0 mm
03:31 AM 12.3°F-10.9°C 6.8°F-14.0°C 78% 3.0 mph NW4.8 kmh NW 7.0 mph11.3 kmh 30.12 in1020.0 mb 0.00 in0.0 mm 0.00 in/hr0.0 mm/hr 0.00 in0.0 mm
03:46 AM 12.2°F-11.0°C 6.7°F-14.1°C 78% 3.0 mph N4.8 kmh N 13.0 mph20.9 kmh 30.13 in1020.3 mb 0.00 in0.0 mm 0.00 in/hr0.0 mm/hr 0.00 in0.0 mm
04:01 AM 12.0°F-11.1°C 6.8°F-14.0°C 79% 4.0 mph N6.4 kmh N 8.0 mph12.9 kmh 30.13 in1020.3 mb 0.00 in0.0 mm 0.00 in/hr0.0 mm/hr 0.00 in0.0 mm
04:15 AM 11.7°F-11.3°C 6.5°F-14.2°C 79% 1.0 mph E1.6 kmh E 14.0 mph22.5 kmh 30.12 in1020.0 mb 0.00 in0.0 mm 0.00 in/hr0.0 mm/hr 0.00 in0.0 mm
04:31 AM 11.4°F-11.4°C 6.2°F-14.3°C 79% 6.0 mph N9.7 kmh N 11.0 mph17.7 kmh 30.13 in1020.3 mb 0.00 in0.0 mm 0.00 in/hr0.0 mm/hr 0.00 in0.0 mm
04:45 AM 11.0°F-11.7°C 5.8°F-14.6°C 79% 6.0 mph N9.7 kmh N 9.0 mph14.5 kmh 30.13 in1020.3 mb 0.00 in0.0 mm 0.00 in/hr0.0 mm/hr 0.00 in0.0 mm
05:02 AM 10.7°F-11.8°C 5.5°F-14.7°C 79% 2.0 mph ESE3.2 kmh ESE 8.0 mph12.9 kmh 30.13 in1020.3 mb 0.00 in0.0 mm 0.00 in/hr0.0 mm/hr 0.00 in0.0 mm
05:16 AM 10.6°F-11.9°C 5.1°F-14.9°C 78% 4.0 mph NNW6.4 kmh NNW 6.0 mph9.7 kmh 30.14 in1020.7 mb 0.00 in0.0 mm 0.00 in/hr0.0 mm/hr 0.00 in0.0 mm
05:31 AM 10.1°F-12.2°C 4.3°F-15.4°C 77% 2.0 mph N3.2 kmh N 11.0 mph17.7 kmh 30.14 in1020.7 mb 0.00 in0.0 mm 0.00 in/hr0.0 mm/hr 0.00 in0.0 mm
05:45 AM 9.9°F-12.3°C 4.2°F-15.4°C 77% 4.0 mph N6.4 kmh N 9.0 mph14.5 kmh 30.15 in1021.0 mb 0.00 in0.0 mm 0.00 in/hr0.0 mm/hr 0.00 in0.0 mm
06:02 AM 9.6°F-12.4°C 3.6°F-15.8°C 76% 3.0 mph NNW4.8 kmh NNW 9.0 mph14.5 kmh 30.15 in1021.0 mb 0.00 in0.0 mm 0.00 in/hr0.0 mm/hr 0.00 in0.0 mm
06:16 AM 9.4°F-12.6°C 3.4°F-15.9°C 76% 2.0 mph NNW3.2 kmh NNW 10.0 mph16.1 kmh 30.16 in1021.3 mb 0.00 in0.0 mm 0.00 in/hr0.0 mm/hr 0.00 in0.0 mm
06:30 AM 9.3°F-12.6°C 3.3°F-15.9°C 76% 8.0 mph NW12.9 kmh NW 13.0 mph20.9 kmh 30.16 in1021.3 mb 0.00 in0.0 mm 0.00 in/hr0.0 mm/hr 0.00 in0.0 mm
06:46 AM 9.1°F-12.7°C 3.4°F-15.9°C 77% 4.0 mph NNW6.4 kmh NNW 9.0 mph14.5 kmh 30.16 in1021.3 mb 0.00 in0.0 mm 0.00 in/hr0.0 mm/hr 0.00 in0.0 mm
07:00 AM 8.9°F-12.8°C 2.9°F-16.2°C 76% 5.0 mph NW8.0 kmh NW 10.0 mph16.1 kmh 30.17 in1021.7 mb 0.00 in0.0 mm 0.00 in/hr0.0 mm/hr 0.00 in0.0 mm
07:16 AM 8.6°F-13.0°C 2.6°F-16.3°C 76% 3.0 mph NNE4.8 kmh NNE 8.0 mph12.9 kmh 30.17 in1021.7 mb 0.00 in0.0 mm 0.00 in/hr0.0 mm/hr 0.00 in0.0 mm
07:31 AM 8.2°F-13.2°C 2.2°F-16.6°C 76% 5.0 mph NW8.0 kmh NW 11.0 mph17.7 kmh 30.17 in1021.7 mb 0.00 in0.0 mm 0.00 in/hr0.0 mm/hr 0.00 in0.0 mm
07:45 AM 8.0°F-13.3°C 1.7°F-16.8°C 75% 4.0 mph NW6.4 kmh NW 11.0 mph17.7 kmh 30.17 in1021.7 mb 0.00 in0.0 mm 0.00 in/hr0.0 mm/hr 0.00 in0.0 mm
08:02 AM 7.9°F-13.4°C 2.5°F-16.4°C 78% 3.0 mph NNW4.8 kmh NNW 8.0 mph12.9 kmh 30.16 in1021.3 mb 0.00 in0.0 mm 0.00 in/hr0.0 mm/hr 0.00 in0.0 mm
08:16 AM 8.0°F-13.3°C 2.6°F-16.3°C 78% 2.0 mph NNE3.2 kmh NNE 8.0 mph12.9 kmh 30.16 in1021.3 mb 0.00 in0.0 mm 0.00 in/hr0.0 mm/hr 0.00 in0.0 mm
08:31 AM 7.9°F-13.4°C 2.5°F-16.4°C 78% 3.0 mph NW4.8 kmh NW 9.0 mph14.5 kmh 30.16 in1021.3 mb 0.00 in0.0 mm 0.00 in/hr0.0 mm/hr 0.00 in0.0 mm
08:46 AM 8.2°F-13.2°C 3.1°F-16.1°C 79% 3.0 mph N4.8 kmh N 5.0 mph8.0 kmh 30.17 in1021.7 mb 0.00 in0.0 mm 0.00 in/hr0.0 mm/hr 0.00 in0.0 mm
09:02 AM 8.3°F-13.2°C 2.6°F-16.3°C 77% 3.0 mph N4.8 kmh N 9.0 mph14.5 kmh 30.18 in1022.0 mb 0.00 in0.0 mm 0.00 in/hr0.0 mm/hr 0.00 in0.0 mm
09:17 AM 8.0°F-13.3°C 2.3°F-16.5°C 77% 2.0 mph NW3.2 kmh NW 10.0 mph16.1 kmh 30.19 in1022.4 mb 0.00 in0.0 mm 0.00 in/hr0.0 mm/hr 0.00 in0.0 mm
09:31 AM 7.3°F-13.7°C 1.1°F-17.2°C 75% Calm Calm 9.0 mph14.5 kmh 30.20 in1022.7 mb 0.00 in0.0 mm 0.00 in/hr0.0 mm/hr 0.00 in0.0 mm
09:46 AM 7.6°F-13.6°C 1.4°F-17.0°C 75% 3.0 mph NW4.8 kmh NW 9.0 mph14.5 kmh 30.21 in1023.0 mb 0.00 in0.0 mm 0.00 in/hr0.0 mm/hr 0.00 in0.0 mm
10:01 AM 8.1°F-13.3°C 1.3°F-17.1°C 73% 2.0 mph NW3.2 kmh NW 9.0 mph14.5 kmh 30.22 in1023.4 mb 0.00 in0.0 mm 0.00 in/hr0.0 mm/hr 0.00 in0.0 mm
10:16 AM 7.8°F-13.4°C 1.0°F-17.2°C 73% 3.0 mph N4.8 kmh N 9.0 mph14.5 kmh 30.23 in1023.7 mb 0.00 in0.0 mm 0.00 in/hr0.0 mm/hr 0.00 in0.0 mm
10:32 AM 7.7°F-13.5°C 0.9°F-17.3°C 73% 5.0 mph N8.0 kmh N 12.0 mph19.3 kmh 30.23 in1023.7 mb 0.00 in0.0 mm 0.00 in/hr0.0 mm/hr 0.00 in0.0 mm
10:46 AM 8.4°F-13.1°C 1.3°F-17.1°C 72% 4.0 mph NNW6.4 kmh NNW 11.0 mph17.7 kmh 30.23 in1023.7 mb 0.00 in0.0 mm 0.00 in/hr0.0 mm/hr 0.00 in0.0 mm
11:01 AM 9.1°F-12.7°C 1.6°F-16.9°C 71% 5.0 mph N8.0 kmh N 10.0 mph16.1 kmh 30.23 in1023.7 mb 0.00 in0.0 mm 0.00 in/hr0.0 mm/hr 0.00 in0.0 mm
11:16 AM 10.1°F-12.2°C 2.3°F-16.5°C 70% 5.0 mph WNW8.0 kmh WNW 8.0 mph12.9 kmh 30.23 in1023.7 mb 0.00 in0.0 mm 0.00 in/hr0.0 mm/hr 0.00 in0.0 mm
11:31 AM 10.1°F-12.2°C 2.3°F-16.5°C 70% 5.0 mph NW8.0 kmh NW 9.0 mph14.5 kmh 30.24 in1024.0 mb 0.00 in0.0 mm 0.00 in/hr0.0 mm/hr 0.00 in0.0 mm
11:46 AM 10.9°F-11.7°C 2.7°F-16.3°C 69% 6.0 mph NW9.7 kmh NW 10.0 mph16.1 kmh 30.25 in1024.4 mb 0.00 in0.0 mm 0.00 in/hr0.0 mm/hr 0.00 in0.0 mm
12:02 PM 12.4°F-10.9°C 3.6°F-15.8°C 67% 4.0 mph NW6.4 kmh NW 9.0 mph14.5 kmh 30.24 in1024.0 mb 0.00 in0.0 mm 0.00 in/hr0.0 mm/hr 0.00 in0.0 mm
12:16 PM 12.5°F-10.8°C 3.3°F-15.9°C 66% 7.0 mph NW11.3 kmh NW 11.0 mph17.7 kmh 30.24 in1024.0 mb 0.00 in0.0 mm 0.00 in/hr0.0 mm/hr 0.00 in0.0 mm
12:31 PM 13.9°F-10.1°C 4.7°F-15.2°C 66% 6.0 mph NNW9.7 kmh NNW 8.0 mph12.9 kmh 30.24 in1024.0 mb 0.00 in0.0 mm 0.00 in/hr0.0 mm/hr 0.00 in0.0 mm
12:45 PM 13.2°F-10.4°C 4.0°F-15.6°C 66% 7.0 mph NW11.3 kmh NW 15.0 mph24.1 kmh 30.24 in1024.0 mb 0.00 in0.0 mm 0.00 in/hr0.0 mm/hr 0.00 in0.0 mm
01:02 PM 14.2°F-9.9°C 5.3°F-14.8°C 67% 6.0 mph NW9.7 kmh NW 10.0 mph16.1 kmh 30.24 in1024.0 mb 0.00 in0.0 mm 0.00 in/hr0.0 mm/hr 0.00 in0.0 mm
01:15 PM 15.2°F-9.3°C 5.9°F-14.5°C 66% 5.0 mph NNW8.0 kmh NNW 8.0 mph12.9 kmh 30.23 in1023.7 mb 0.00 in0.0 mm 0.00 in/hr0.0 mm/hr 0.00 in0.0 mm
01:31 PM 15.0°F-9.4°C 5.7°F-14.6°C 66% 5.0 mph NW8.0 kmh NW 10.0 mph16.1 kmh 30.23 in1023.7 mb 0.00 in0.0 mm 0.00 in/hr0.0 mm/hr 0.00 in0.0 mm
01:46 PM 16.2°F-8.8°C 6.9°F-13.9°C 66% 4.0 mph NW6.4 kmh NW 10.0 mph16.1 kmh 30.22 in1023.4 mb 0.00 in0.0 mm 0.00 in/hr0.0 mm/hr 0.00 in0.0 mm
02:02 PM 16.2°F-8.8°C 7.5°F-13.6°C 68% 3.0 mph NW4.8 kmh NW 8.0 mph12.9 kmh 30.22 in1023.4 mb 0.00 in0.0 mm 0.00 in/hr0.0 mm/hr 0.00 in0.0 mm
02:17 PM 16.8°F-8.4°C 7.4°F-13.7°C 66% 6.0 mph NW9.7 kmh NW 10.0 mph16.1 kmh 30.22 in1023.4 mb 0.00 in0.0 mm 0.00 in/hr0.0 mm/hr 0.00 in0.0 mm
02:31 PM 17.9°F-7.8°C 8.5°F-13.1°C 66% 7.0 mph NW11.3 kmh NW 10.0 mph16.1 kmh 30.21 in1023.0 mb 0.00 in0.0 mm 0.00 in/hr0.0 mm/hr 0.00 in0.0 mm
03:02 PM 20.1°F-6.6°C 10.9°F-11.7°C 67% 7.0 mph NW11.3 kmh NW 8.0 mph12.9 kmh 30.20 in1022.7 mb 0.00 in0.0 mm 0.00 in/hr0.0 mm/hr 0.00 in0.0 mm
03:16 PM 20.4°F-6.4°C 10.5°F-11.9°C 65% 4.0 mph N6.4 kmh N 9.0 mph14.5 kmh 30.19 in1022.4 mb 0.00 in0.0 mm 0.00 in/hr0.0 mm/hr 0.00 in0.0 mm
03:31 PM 19.5°F-6.9°C 10.0°F-12.2°C 66% 7.0 mph NNW11.3 kmh NNW 11.0 mph17.7 kmh 30.19 in1022.4 mb 0.00 in0.0 mm 0.00 in/hr0.0 mm/hr 0.00 in0.0 mm
03:46 PM 19.6°F-6.9°C 10.4°F-12.0°C 67% 4.0 mph NW6.4 kmh NW 9.0 mph14.5 kmh 30.18 in1022.0 mb 0.00 in0.0 mm 0.00 in/hr0.0 mm/hr 0.00 in0.0 mm
04:02 PM 19.8°F-6.8°C 10.6°F-11.9°C 67% 5.0 mph NW8.0 kmh NW 13.0 mph20.9 kmh 30.18 in1022.0 mb 0.00 in0.0 mm 0.00 in/hr0.0 mm/hr 0.00 in0.0 mm
04:16 PM 19.9°F-6.7°C 10.7°F-11.8°C 67% 3.0 mph NNW4.8 kmh NNW 8.0 mph12.9 kmh 30.18 in1022.0 mb 0.00 in0.0 mm 0.00 in/hr0.0 mm/hr 0.00 in0.0 mm
04:31 PM 20.2°F-6.6°C 11.0°F-11.7°C 67% 5.0 mph NW8.0 kmh NW 10.0 mph16.1 kmh 30.18 in1022.0 mb 0.00 in0.0 mm 0.00 in/hr0.0 mm/hr 0.00 in0.0 mm
04:46 PM 20.1°F-6.6°C 10.6°F-11.9°C 66% 6.0 mph NW9.7 kmh NW 11.0 mph17.7 kmh 30.19 in1022.4 mb 0.00 in0.0 mm 0.00 in/hr0.0 mm/hr 0.00 in0.0 mm
05:02 PM 20.0°F-6.7°C 10.1°F-12.2°C 65% 5.0 mph NW8.0 kmh NW 12.0 mph19.3 kmh 30.19 in1022.4 mb 0.00 in0.0 mm 0.00 in/hr0.0 mm/hr 0.00 in0.0 mm
05:16 PM 20.0°F-6.7°C 10.1°F-12.2°C 65% 5.0 mph NW8.0 kmh NW 12.0 mph19.3 kmh 30.19 in1022.4 mb 0.00 in0.0 mm 0.00 in/hr0.0 mm/hr 0.00 in0.0 mm
05:31 PM 20.4°F-6.4°C 10.9°F-11.7°C 66% 4.0 mph N6.4 kmh N 7.0 mph11.3 kmh 30.19 in1022.4 mb 0.00 in0.0 mm 0.00 in/hr0.0 mm/hr 0.00 in0.0 mm
05:46 PM 20.7°F-6.3°C 10.8°F-11.8°C 65% 3.0 mph NW4.8 kmh NW 10.0 mph16.1 kmh 30.18 in1022.0 mb 0.00 in0.0 mm 0.00 in/hr0.0 mm/hr 0.00 in0.0 mm
06:02 PM 20.9°F-6.2°C 11.0°F-11.7°C 65% 3.0 mph W4.8 kmh W 9.0 mph14.5 kmh 30.18 in1022.0 mb 0.00 in0.0 mm 0.00 in/hr0.0 mm/hr 0.00 in0.0 mm
06:16 PM 21.2°F-6.0°C 11.6°F-11.3°C 66% 2.0 mph NW3.2 kmh NW 5.0 mph8.0 kmh 30.18 in1022.0 mb 0.00 in0.0 mm 0.00 in/hr0.0 mm/hr 0.00 in0.0 mm
06:31 PM 21.3°F-5.9°C 11.7°F-11.3°C 66% 2.0 mph NW3.2 kmh NW 5.0 mph8.0 kmh 30.18 in1022.0 mb 0.00 in0.0 mm 0.00 in/hr0.0 mm/hr 0.00 in0.0 mm
06:46 PM 21.3°F-5.9°C 11.7°F-11.3°C 66% 2.0 mph WNW3.2 kmh WNW 10.0 mph16.1 kmh 30.18 in1022.0 mb 0.00 in0.0 mm 0.00 in/hr0.0 mm/hr 0.00 in0.0 mm
07:02 PM 21.4°F-5.9°C 12.2°F-11.0°C 67% 3.0 mph WNW4.8 kmh WNW 7.0 mph11.3 kmh 30.18 in1022.0 mb 0.00 in0.0 mm 0.00 in/hr0.0 mm/hr 0.00 in0.0 mm
07:15 PM 21.6°F-5.8°C 12.4°F-10.9°C 67% 6.0 mph WNW9.7 kmh WNW 9.0 mph14.5 kmh 30.19 in1022.4 mb 0.00 in0.0 mm 0.00 in/hr0.0 mm/hr 0.00 in0.0 mm
07:31 PM 21.5°F-5.8°C 11.9°F-11.2°C 66% 2.0 mph NW3.2 kmh NW 10.0 mph16.1 kmh 30.18 in1022.0 mb 0.00 in0.0 mm 0.00 in/hr0.0 mm/hr 0.00 in0.0 mm
07:46 PM 21.3°F-5.9°C 12.4°F-10.9°C 68% 8.0 mph WSW12.9 kmh WSW 13.0 mph20.9 kmh 30.18 in1022.0 mb 0.00 in0.0 mm 0.00 in/hr0.0 mm/hr 0.00 in0.0 mm
08:02 PM 21.1°F-6.1°C 11.5°F-11.4°C 66% 6.0 mph NW9.7 kmh NW 11.0 mph17.7 kmh 30.19 in1022.4 mb 0.00 in0.0 mm 0.00 in/hr0.0 mm/hr 0.00 in0.0 mm
08:15 PM 20.8°F-6.2°C 11.3°F-11.5°C 66% 5.0 mph NW8.0 kmh NW 17.0 mph27.4 kmh 30.19 in1022.4 mb 0.00 in0.0 mm 0.00 in/hr0.0 mm/hr 0.00 in0.0 mm
08:31 PM 20.7°F-6.3°C 11.8°F-11.2°C 68% 14.0 mph NW22.5 kmh NW 14.0 mph22.5 kmh 30.19 in1022.4 mb 0.00 in0.0 mm 0.00 in/hr0.0 mm/hr 0.00 in0.0 mm
08:46 PM 20.3°F-6.5°C 10.4°F-12.0°C 65% 10.0 mph NW16.1 kmh NW 15.0 mph24.1 kmh 30.19 in1022.4 mb 0.00 in0.0 mm 0.00 in/hr0.0 mm/hr 0.00 in0.0 mm
09:02 PM 19.6°F-6.9°C 10.8°F-11.8°C 68% 9.0 mph NW14.5 kmh NW 16.0 mph25.7 kmh 30.19 in1022.4 mb 0.00 in0.0 mm 0.00 in/hr0.0 mm/hr 0.00 in0.0 mm
09:16 PM 19.5°F-6.9°C 11.0°F-11.7°C 69% 4.0 mph NW6.4 kmh NW 11.0 mph17.7 kmh 30.18 in1022.0 mb 0.00 in0.0 mm 0.00 in/hr0.0 mm/hr 0.00 in0.0 mm
09:31 PM 19.5°F-6.9°C 11.3°F-11.5°C 70% 4.0 mph WSW6.4 kmh WSW 11.0 mph17.7 kmh 30.18 in1022.0 mb 0.00 in0.0 mm 0.00 in/hr0.0 mm/hr 0.00 in0.0 mm
09:46 PM 19.3°F-7.1°C 10.8°F-11.8°C 69% 6.0 mph WNW9.7 kmh WNW 11.0 mph17.7 kmh 30.18 in1022.0 mb 0.00 in0.0 mm 0.00 in/hr0.0 mm/hr 0.00 in0.0 mm
10:02 PM 19.2°F-7.1°C 10.7°F-11.8°C 69% 9.0 mph WSW14.5 kmh WSW 13.0 mph20.9 kmh 30.17 in1021.7 mb 0.00 in0.0 mm 0.00 in/hr0.0 mm/hr 0.00 in0.0 mm
10:16 PM 19.1°F-7.2°C 10.9°F-11.7°C 70% 13.0 mph WSW20.9 kmh WSW 13.0 mph20.9 kmh 30.17 in1021.7 mb 0.00 in0.0 mm 0.00 in/hr0.0 mm/hr 0.00 in0.0 mm
10:31 PM 19.0°F-7.2°C 10.8°F-11.8°C 70% 5.0 mph NW8.0 kmh NW 11.0 mph17.7 kmh 30.17 in1021.7 mb 0.00 in0.0 mm 0.00 in/hr0.0 mm/hr 0.00 in0.0 mm
10:46 PM 19.0°F-7.2°C 11.5°F-11.4°C 72% 8.0 mph WNW12.9 kmh WNW 9.0 mph14.5 kmh 30.17 in1021.7 mb 0.00 in0.0 mm 0.00 in/hr0.0 mm/hr 0.00 in0.0 mm
11:03 PM 19.0°F-7.2°C 11.5°F-11.4°C 72% 9.0 mph WSW14.5 kmh WSW 10.0 mph16.1 kmh 30.16 in1021.3 mb 0.00 in0.0 mm 0.00 in/hr0.0 mm/hr 0.00 in0.0 mm
11:15 PM 18.9°F-7.3°C 11.4°F-11.4°C 72% 6.0 mph NW9.7 kmh NW 14.0 mph22.5 kmh 30.16 in1021.3 mb 0.00 in0.0 mm 0.00 in/hr0.0 mm/hr 0.00 in0.0 mm
11:31 PM 19.0°F-7.2°C 11.8°F-11.2°C 73% 3.0 mph NW4.8 kmh NW 12.0 mph19.3 kmh 30.16 in1021.3 mb 0.00 in0.0 mm 0.00 in/hr0.0 mm/hr 0.00 in0.0 mm
11:45 PM 18.9°F-7.3°C 11.4°F-11.4°C 72% 7.0 mph NW11.3 kmh NW 11.0 mph17.7 kmh 30.16 in1021.3 mb 0.00 in0.0 mm 0.00 in/hr0.0 mm/hr 0.00 in0.0 mm